createdAt,value
2023-04-20T00:00:24.591Z,411.00
2023-04-20T00:01:24.677Z,412.00
2023-04-20T00:02:24.735Z,413.00
2023-04-20T00:03:24.947Z,410.00
2023-04-20T00:04:24.745Z,412.00
2023-04-20T00:05:24.813Z,411.00
2023-04-20T00:06:24.801Z,412.00
2023-04-20T00:07:24.888Z,410.00
2023-04-20T00:08:24.875Z,412.00
2023-04-20T00:09:24.898Z,413.00
2023-04-20T00:10:24.946Z,412.00
2023-04-20T00:11:24.998Z,412.00
2023-04-20T00:12:25.002Z,413.00
2023-04-20T00:13:25.081Z,413.00
2023-04-20T00:14:25.068Z,411.00
2023-04-20T00:15:25.091Z,411.00
2023-04-20T00:16:25.150Z,411.00
2023-04-20T00:17:25.180Z,410.00
2023-04-20T00:18:25.191Z,408.00
2023-04-20T00:19:25.205Z,408.00
2023-04-20T00:20:25.242Z,407.00
2023-04-20T00:21:25.318Z,407.00
2023-04-20T00:22:25.333Z,407.00
2023-04-20T00:23:25.386Z,409.00
2023-04-20T00:24:25.394Z,409.00
2023-04-20T00:25:25.462Z,406.00
2023-04-20T00:26:25.485Z,406.00
2023-04-20T00:27:25.485Z,407.00
2023-04-20T00:28:25.523Z,409.00
2023-04-20T00:29:25.538Z,409.00
2023-04-20T00:30:25.575Z,411.00
2023-04-20T00:31:25.642Z,412.00
2023-04-20T00:32:25.654Z,413.00
2023-04-20T00:33:25.666Z,413.00
2023-04-20T00:34:25.710Z,416.00
2023-04-20T00:35:25.749Z,416.00
2023-04-20T00:36:25.782Z,415.00
2023-04-20T00:37:25.873Z,416.00
2023-04-20T00:38:25.843Z,416.00
2023-04-20T00:39:25.889Z,415.00
2023-04-20T00:40:25.901Z,414.00
2023-04-20T00:41:25.950Z,413.00
2023-04-20T00:42:26.013Z,413.00
2023-04-20T00:43:26.015Z,412.00
2023-04-20T00:44:26.083Z,411.00
2023-04-20T00:45:26.099Z,410.00
2023-04-20T00:46:26.169Z,409.00
2023-04-20T00:47:26.165Z,407.00
2023-04-20T00:48:26.218Z,407.00
2023-04-20T00:49:26.226Z,408.00
2023-04-20T00:50:26.264Z,408.00
2023-04-20T00:51:26.280Z,406.00
2023-04-20T00:52:26.338Z,403.00
2023-04-20T00:53:26.366Z,404.00
2023-04-20T00:54:26.386Z,407.00
2023-04-20T00:55:26.403Z,407.00
2023-04-20T00:56:26.394Z,407.00
2023-04-20T00:57:26.479Z,408.00
2023-04-20T00:58:26.491Z,407.00
2023-04-20T00:59:26.534Z,408.00
2023-04-20T01:00:26.518Z,406.00
2023-04-20T01:01:26.626Z,406.00
2023-04-20T01:02:26.683Z,406.00
2023-04-20T01:03:26.769Z,406.00
2023-04-20T01:04:26.816Z,406.00
2023-04-20T01:05:26.801Z,406.00
2023-04-20T01:06:26.795Z,403.00
2023-04-20T01:07:26.847Z,401.00
2023-04-20T01:08:26.942Z,400.00
2023-04-20T01:09:26.933Z,400.00
2023-04-20T01:10:26.985Z,400.00
2023-04-20T01:11:27.092Z,400.00
2023-04-20T01:12:27.042Z,400.00
2023-04-20T01:13:27.126Z,398.00
2023-04-20T01:14:27.212Z,399.00
2023-04-20T01:15:27.208Z,397.00
2023-04-20T01:16:27.357Z,398.00
2023-04-20T01:17:27.347Z,399.00
2023-04-20T01:18:27.327Z,401.00
2023-04-20T01:19:27.357Z,402.00
2023-04-20T01:20:27.444Z,403.00
2023-04-20T01:21:27.451Z,403.00
2023-04-20T01:22:27.582Z,404.00
2023-04-20T01:23:27.579Z,402.00
2023-04-20T01:24:27.595Z,403.00
2023-04-20T01:25:27.682Z,402.00
2023-04-20T01:26:27.705Z,401.00
2023-04-20T01:27:27.728Z,400.00
2023-04-20T01:28:27.800Z,400.00
2023-04-20T01:29:27.823Z,402.00
2023-04-20T01:30:27.887Z,401.00
2023-04-20T01:31:28.028Z,401.00
2023-04-20T01:32:27.979Z,401.00
2023-04-20T01:33:27.952Z,401.00
2023-04-20T01:34:28.000Z,403.00
2023-04-20T01:35:28.078Z,405.00
2023-04-20T01:36:28.096Z,405.00
2023-04-20T01:37:28.138Z,406.00
2023-04-20T01:38:28.175Z,404.00
2023-04-20T01:39:28.255Z,404.00
2023-04-20T01:40:28.257Z,403.00
2023-04-20T01:41:28.323Z,405.00
2023-04-20T01:42:28.312Z,407.00
2023-04-20T01:43:28.397Z,407.00
2023-04-20T01:44:28.459Z,407.00
2023-04-20T01:45:28.512Z,408.00
2023-04-20T01:46:28.608Z,408.00
2023-04-20T01:47:28.600Z,407.00
2023-04-20T01:48:28.638Z,408.00
2023-04-20T01:49:28.681Z,409.00
2023-04-20T01:50:28.691Z,408.00
2023-04-20T01:51:28.724Z,405.00
2023-04-20T01:52:28.794Z,403.00
2023-04-20T01:53:28.823Z,404.00
2023-04-20T01:54:28.852Z,406.00
2023-04-20T01:55:28.869Z,408.00
2023-04-20T01:56:28.985Z,409.00
2023-04-20T01:57:28.973Z,410.00
2023-04-20T01:58:29.044Z,409.00
2023-04-20T01:59:29.072Z,409.00
2023-04-20T02:00:29.135Z,410.00
2023-04-20T02:01:29.207Z,412.00
2023-04-20T02:02:29.405Z,412.00
2023-04-20T02:03:29.667Z,411.00
2023-04-20T02:04:29.328Z,412.00
2023-04-20T02:05:29.406Z,410.00
2023-04-20T02:06:29.471Z,410.00
2023-04-20T02:07:29.521Z,408.00
2023-04-20T02:08:29.556Z,407.00
2023-04-20T02:09:29.564Z,408.00
2023-04-20T02:10:29.587Z,408.00
2023-04-20T02:11:29.639Z,407.00
2023-04-20T02:12:29.802Z,406.00
2023-04-20T02:13:29.767Z,405.00
2023-04-20T02:14:29.799Z,406.00
2023-04-20T02:15:29.842Z,408.00
2023-04-20T02:16:29.909Z,408.00
2023-04-20T02:17:29.991Z,409.00
2023-04-20T02:18:30.015Z,410.00
2023-04-20T02:19:30.093Z,408.00
2023-04-20T02:20:30.118Z,409.00
2023-04-20T02:21:30.173Z,407.00
2023-04-20T02:22:30.240Z,406.00
2023-04-20T02:23:30.226Z,405.00
2023-04-20T02:24:30.279Z,406.00
2023-04-20T02:25:30.362Z,409.00
2023-04-20T02:26:30.391Z,410.00
2023-04-20T02:27:30.434Z,409.00
2023-04-20T02:28:30.519Z,409.00
2023-04-20T02:29:30.512Z,410.00
2023-04-20T02:30:30.615Z,410.00
2023-04-20T02:31:30.680Z,408.00
2023-04-20T02:32:30.711Z,409.00
2023-04-20T02:33:30.772Z,409.00
2023-04-20T02:34:30.779Z,409.00
2023-04-20T02:35:30.844Z,407.00
2023-04-20T02:36:30.903Z,408.00
2023-04-20T02:37:30.962Z,408.00
2023-04-20T02:38:31.008Z,408.00
2023-04-20T02:39:31.020Z,408.00
2023-04-20T02:40:31.056Z,405.00
2023-04-20T02:41:31.140Z,406.00
2023-04-20T02:42:31.197Z,406.00
2023-04-20T02:43:31.186Z,405.00
2023-04-20T02:44:31.259Z,404.00
2023-04-20T02:45:31.317Z,406.00
2023-04-20T02:46:31.397Z,406.00
2023-04-20T02:47:31.420Z,406.00
2023-04-20T02:48:31.450Z,405.00
2023-04-20T02:49:31.450Z,406.00
2023-04-20T02:50:31.489Z,407.00
2023-04-20T02:51:31.545Z,407.00
2023-04-20T02:52:31.572Z,407.00
2023-04-20T02:53:31.634Z,405.00
2023-04-20T02:54:31.695Z,403.00
2023-04-20T02:55:31.723Z,406.00
2023-04-20T02:56:31.720Z,406.00
2023-04-20T02:57:31.797Z,405.00
2023-04-20T02:58:31.823Z,404.00
2023-04-20T02:59:31.856Z,404.00
2023-04-20T03:00:31.921Z,405.00
2023-04-20T03:01:31.968Z,404.00
2023-04-20T03:02:32.140Z,405.00
2023-04-20T03:03:32.192Z,406.00
2023-04-20T03:04:32.135Z,406.00
2023-04-20T03:05:32.094Z,405.00
2023-04-20T03:06:32.314Z,407.00
2023-04-20T03:07:32.172Z,408.00
2023-04-20T03:08:32.281Z,409.00
2023-04-20T03:09:32.277Z,407.00
2023-04-20T03:10:32.338Z,409.00
2023-04-20T03:11:32.401Z,410.00
2023-04-20T03:12:32.419Z,409.00
2023-04-20T03:13:32.559Z,409.00
2023-04-20T03:14:32.636Z,409.00
2023-04-20T03:15:32.599Z,407.00
2023-04-20T03:16:32.635Z,407.00
2023-04-20T03:17:32.757Z,407.00
2023-04-20T03:18:32.714Z,405.00
2023-04-20T03:19:32.771Z,406.00
2023-04-20T03:20:32.800Z,406.00
2023-04-20T03:21:32.880Z,405.00
2023-04-20T03:22:32.842Z,406.00
2023-04-20T03:23:32.954Z,406.00
2023-04-20T03:24:33.002Z,408.00
2023-04-20T03:25:33.066Z,408.00
2023-04-20T03:26:33.058Z,408.00
2023-04-20T03:27:33.236Z,409.00
2023-04-20T03:28:33.202Z,409.00
2023-04-20T03:29:33.242Z,409.00
2023-04-20T03:30:34.178Z,407.00
2023-04-20T03:31:33.301Z,404.00
2023-04-20T03:32:33.498Z,404.00
2023-04-20T03:33:33.368Z,404.00
2023-04-20T03:34:33.408Z,403.00
2023-04-20T03:35:33.514Z,401.00
2023-04-20T03:36:33.542Z,399.00
2023-04-20T03:37:33.645Z,399.00
2023-04-20T03:38:33.642Z,401.00
2023-04-20T03:39:33.717Z,401.00
2023-04-20T03:40:33.718Z,400.00
2023-04-20T03:41:33.772Z,400.00
2023-04-20T03:42:33.840Z,402.00
2023-04-20T03:43:33.874Z,401.00
2023-04-20T03:44:34.036Z,401.00
2023-04-20T03:45:33.993Z,400.00
2023-04-20T03:46:34.067Z,402.00
2023-04-20T03:47:34.109Z,402.00
2023-04-20T03:48:34.208Z,402.00
2023-04-20T03:49:34.267Z,400.00
2023-04-20T03:50:34.221Z,400.00
2023-04-20T03:51:34.342Z,402.00
2023-04-20T03:52:34.321Z,402.00
2023-04-20T03:53:34.437Z,401.00
2023-04-20T03:54:34.437Z,403.00
2023-04-20T03:55:34.477Z,402.00
2023-04-20T03:56:34.611Z,402.00
2023-04-20T03:57:34.604Z,401.00
2023-04-20T03:58:34.681Z,400.00
2023-04-20T03:59:34.718Z,399.00
2023-04-20T04:00:34.727Z,399.00
2023-04-20T04:01:34.803Z,398.00
2023-04-20T04:02:37.524Z,399.00
2023-04-20T04:03:35.043Z,399.00
2023-04-20T04:04:34.980Z,400.00
2023-04-20T04:05:34.897Z,400.00
2023-04-20T04:06:34.862Z,401.00
2023-04-20T04:07:34.779Z,402.00
2023-04-20T04:08:34.770Z,402.00
2023-04-20T04:09:34.784Z,402.00
2023-04-20T04:10:34.807Z,400.00
2023-04-20T04:11:34.755Z,399.00
2023-04-20T04:12:34.777Z,398.00
2023-04-20T04:13:35.005Z,399.00
2023-04-20T04:14:34.770Z,400.00
2023-04-20T04:15:34.792Z,401.00
2023-04-20T04:16:34.757Z,403.00
2023-04-20T04:17:34.748Z,403.00
2023-04-20T04:18:34.706Z,403.00
2023-04-20T04:19:34.710Z,402.00
2023-04-20T04:20:34.711Z,401.00
2023-04-20T04:21:34.744Z,400.00
2023-04-20T04:22:34.664Z,398.00
2023-04-20T04:23:34.740Z,398.00
2023-04-20T04:24:34.693Z,399.00
2023-04-20T04:25:34.700Z,400.00
2023-04-20T04:26:34.647Z,402.00
2023-04-20T04:27:34.666Z,401.00
2023-04-20T04:28:34.661Z,401.00
2023-04-20T04:29:34.680Z,402.00
2023-04-20T04:30:34.682Z,404.00
2023-04-20T04:31:34.728Z,406.00
2023-04-20T04:32:34.712Z,408.00
2023-04-20T04:33:34.663Z,408.00
2023-04-20T04:34:34.609Z,408.00
2023-04-20T04:35:34.649Z,408.00
2023-04-20T04:36:34.613Z,407.00
2023-04-20T04:37:34.626Z,408.00
2023-04-20T04:38:34.563Z,407.00
2023-04-20T04:39:34.594Z,407.00
2023-04-20T04:40:34.580Z,407.00
2023-04-20T04:41:34.554Z,406.00
2023-04-20T04:42:34.565Z,405.00
2023-04-20T04:43:34.710Z,402.00
2023-04-20T04:44:34.842Z,402.00
2023-04-20T04:45:34.782Z,404.00
2023-04-20T04:46:34.874Z,404.00
2023-04-20T04:47:35.050Z,403.00
2023-04-20T04:48:34.929Z,403.00
2023-04-20T04:49:35.070Z,402.00
2023-04-20T04:50:35.073Z,400.00
2023-04-20T04:51:35.163Z,401.00
2023-04-20T04:52:35.187Z,400.00
2023-04-20T04:53:35.365Z,400.00
2023-04-20T04:54:35.303Z,400.00
2023-04-20T04:55:35.396Z,400.00
2023-04-20T04:56:35.489Z,401.00
2023-04-20T04:57:35.500Z,400.00
2023-04-20T04:58:35.514Z,399.00
2023-04-20T04:59:35.598Z,400.00
2023-04-20T05:00:35.648Z,398.00
2023-04-20T05:01:35.695Z,396.00
2023-04-20T05:02:35.851Z,396.00
2023-04-20T05:03:35.875Z,396.00
2023-04-20T05:04:36.029Z,395.00
2023-04-20T05:05:35.909Z,395.00
2023-04-20T05:06:35.949Z,394.00
2023-04-20T05:07:36.083Z,395.00
2023-04-20T05:08:36.098Z,396.00
2023-04-20T05:09:36.104Z,398.00
2023-04-20T05:10:36.148Z,397.00
2023-04-20T05:11:36.703Z,399.00
2023-04-20T05:12:36.259Z,400.00
2023-04-20T05:13:36.340Z,398.00
2023-04-20T05:14:36.601Z,400.00
2023-04-20T05:15:36.458Z,403.00
2023-04-20T05:16:36.522Z,405.00
2023-04-20T05:17:36.625Z,407.00
2023-04-20T05:18:36.671Z,407.00
2023-04-20T05:19:36.630Z,407.00
2023-04-20T05:20:36.697Z,406.00
2023-04-20T05:21:36.801Z,407.00
2023-04-20T05:22:36.813Z,407.00
2023-04-20T05:23:36.888Z,406.00
2023-04-20T05:24:37.001Z,404.00
2023-04-20T05:25:37.061Z,403.00
2023-04-20T05:26:37.138Z,404.00
2023-04-20T05:27:37.151Z,402.00
2023-04-20T05:28:37.192Z,401.00
2023-04-20T05:29:37.233Z,403.00
2023-04-20T05:30:37.373Z,401.00
2023-04-20T05:31:37.409Z,401.00
2023-04-20T05:32:37.437Z,403.00
2023-04-20T05:33:37.530Z,408.00
2023-04-20T05:34:37.582Z,408.00
2023-04-20T05:35:37.546Z,412.00
2023-04-20T05:36:37.556Z,420.00
2023-04-20T05:37:37.627Z,433.00
2023-04-20T05:38:38.649Z,442.00
2023-04-20T05:39:38.250Z,453.00
2023-04-20T05:40:37.581Z,467.00
2023-04-20T05:41:37.656Z,478.00
2023-04-20T05:42:37.699Z,508.00
2023-04-20T05:43:37.675Z,546.00
2023-04-20T05:44:37.657Z,555.00
2023-04-20T05:45:37.729Z,560.00
2023-04-20T05:46:37.671Z,563.00
2023-04-20T05:47:37.831Z,567.00
2023-04-20T05:48:37.685Z,569.00
2023-04-20T05:49:37.744Z,571.00
2023-04-20T05:50:37.710Z,573.00
2023-04-20T05:51:40.009Z,577.00
2023-04-20T05:52:37.740Z,591.00
2023-04-20T05:53:37.830Z,607.00
2023-04-20T05:54:38.248Z,611.00
2023-04-20T05:55:37.901Z,618.00
2023-04-20T05:56:37.937Z,622.00
2023-04-20T05:57:37.970Z,629.00
2023-04-20T05:58:38.074Z,638.00
2023-04-20T05:59:38.122Z,645.00
2023-04-20T06:00:38.232Z,654.00
2023-04-20T06:01:38.248Z,666.00
2023-04-20T06:02:38.383Z,677.00
2023-04-20T06:03:38.494Z,687.00
2023-04-20T06:04:38.488Z,695.00
2023-04-20T06:05:38.780Z,695.00
2023-04-20T06:06:38.504Z,693.00
2023-04-20T06:07:38.478Z,690.00
2023-04-20T06:08:38.577Z,691.00
2023-04-20T06:09:38.617Z,689.00
2023-04-20T06:10:38.773Z,687.00
2023-04-20T06:11:38.811Z,689.00
2023-04-20T06:12:38.684Z,691.00
2023-04-20T06:13:38.742Z,693.00
2023-04-20T06:14:38.748Z,695.00
2023-04-20T06:15:38.842Z,701.00
2023-04-20T06:16:38.750Z,703.00
2023-04-20T06:17:38.865Z,707.00
2023-04-20T06:18:38.847Z,709.00
2023-04-20T06:19:38.824Z,712.00
2023-04-20T06:20:38.860Z,713.00
2023-04-20T06:21:38.860Z,717.00
2023-04-20T06:22:38.890Z,720.00
2023-04-20T06:23:38.910Z,724.00
2023-04-20T06:24:38.986Z,726.00
2023-04-20T06:25:38.971Z,727.00
2023-04-20T06:26:38.989Z,729.00
2023-04-20T06:27:38.983Z,731.00
2023-04-20T06:28:38.961Z,732.00
2023-04-20T06:29:38.937Z,736.00
2023-04-20T06:30:38.952Z,740.00
2023-04-20T06:31:38.962Z,747.00
2023-04-20T06:32:39.074Z,762.00
2023-04-20T06:33:39.236Z,770.00
2023-04-20T06:34:39.003Z,773.00
2023-04-20T06:35:38.976Z,770.00
2023-04-20T06:36:40.807Z,765.00
2023-04-20T06:37:39.052Z,762.00
2023-04-20T06:38:39.133Z,757.00
2023-04-20T06:39:39.067Z,755.00
2023-04-20T06:40:39.055Z,738.00
2023-04-20T06:41:39.064Z,705.00
2023-04-20T06:42:39.150Z,689.00
2023-04-20T06:43:39.756Z,678.00
2023-04-20T06:44:40.595Z,666.00
2023-04-20T06:45:39.198Z,653.00
2023-04-20T06:46:39.357Z,640.00
2023-04-20T06:47:39.317Z,604.00
2023-04-20T06:48:39.415Z,587.00
2023-04-20T06:49:39.742Z,580.00
2023-04-20T06:50:39.443Z,573.00
2023-04-20T06:51:39.503Z,540.00
2023-04-20T06:52:39.476Z,536.00
2023-04-20T06:53:39.462Z,532.00
2023-04-20T06:54:39.567Z,529.00
2023-04-20T06:55:39.475Z,527.00
2023-04-20T06:56:39.528Z,513.00
2023-04-20T06:57:40.230Z,505.00
2023-04-20T06:58:39.761Z,501.00
2023-04-20T06:59:40.745Z,496.00
2023-04-20T07:00:40.307Z,495.00
2023-04-20T07:01:39.714Z,488.00
2023-04-20T07:02:39.831Z,486.00
2023-04-20T07:03:39.797Z,479.00
2023-04-20T07:04:39.913Z,470.00
2023-04-20T07:05:39.802Z,464.00
2023-04-20T07:06:40.273Z,459.00
2023-04-20T07:07:40.315Z,459.00
2023-04-20T07:08:40.279Z,460.00
2023-04-20T07:09:39.994Z,456.00
2023-04-20T07:10:40.041Z,453.00
2023-04-20T07:11:40.259Z,450.00
2023-04-20T07:12:42.146Z,448.00
2023-04-20T07:13:40.018Z,449.00
2023-04-20T07:14:40.070Z,447.00
2023-04-20T07:15:40.021Z,446.00
2023-04-20T07:16:40.030Z,446.00
2023-04-20T07:17:40.058Z,440.00
2023-04-20T07:18:40.139Z,437.00
2023-04-20T07:19:39.972Z,434.00
2023-04-20T07:20:40.257Z,433.00
2023-04-20T07:21:39.965Z,429.00
2023-04-20T07:22:39.959Z,430.00
2023-04-20T07:23:39.980Z,427.00
2023-04-20T07:24:39.971Z,423.00
2023-04-20T07:25:40.089Z,420.00
2023-04-20T07:26:40.342Z,418.00
2023-04-20T07:27:39.961Z,419.00
2023-04-20T07:28:40.033Z,419.00
2023-04-20T07:29:39.981Z,423.00
2023-04-20T07:30:40.036Z,422.00
2023-04-20T07:31:40.381Z,422.00
2023-04-20T07:32:40.137Z,436.00
2023-04-20T07:33:39.890Z,458.00
2023-04-20T07:34:39.987Z,517.00
2023-04-20T07:35:39.951Z,528.00
2023-04-20T07:36:40.377Z,531.00
2023-04-20T07:37:40.621Z,531.00
2023-04-20T07:38:39.871Z,536.00
2023-04-20T07:39:39.899Z,549.00
2023-04-20T07:40:39.937Z,605.00
2023-04-20T07:41:40.314Z,624.00
2023-04-20T07:42:40.757Z,637.00
2023-04-20T07:43:39.857Z,643.00
2023-04-20T07:44:39.814Z,659.00
2023-04-20T07:45:40.301Z,677.00
2023-04-20T07:46:39.912Z,682.00
2023-04-20T07:47:39.887Z,688.00
2023-04-20T07:48:39.887Z,695.00
2023-04-20T07:49:39.792Z,703.00
2023-04-20T07:50:39.804Z,706.00
2023-04-20T07:51:39.853Z,707.00
2023-04-20T07:52:39.777Z,713.00
2023-04-20T07:53:39.769Z,718.00
2023-04-20T07:54:39.718Z,724.00
2023-04-20T07:55:39.785Z,728.00
2023-04-20T07:56:39.781Z,728.00
2023-04-20T07:57:39.765Z,733.00
2023-04-20T07:58:39.760Z,737.00
2023-04-20T07:59:39.697Z,744.00
2023-04-20T08:00:39.703Z,749.00
2023-04-20T08:01:39.779Z,754.00
2023-04-20T08:02:39.907Z,758.00
2023-04-20T08:03:39.897Z,761.00
2023-04-20T08:04:39.945Z,768.00
2023-04-20T08:05:39.752Z,776.00
2023-04-20T08:06:39.707Z,785.00
2023-04-20T08:07:39.679Z,793.00
2023-04-20T08:08:39.605Z,797.00
2023-04-20T08:09:39.797Z,798.00
2023-04-20T08:10:39.788Z,798.00
2023-04-20T08:11:39.686Z,802.00
2023-04-20T08:12:39.630Z,805.00
2023-04-20T08:13:40.099Z,810.00
2023-04-20T08:14:39.757Z,820.00
2023-04-20T08:15:39.777Z,821.00
2023-04-20T08:16:40.086Z,832.00
2023-04-20T08:17:39.908Z,863.00
2023-04-20T08:18:39.895Z,863.00
2023-04-20T08:19:40.486Z,861.00
2023-04-20T08:20:40.072Z,863.00
2023-04-20T08:21:40.020Z,864.00
2023-04-20T08:22:40.103Z,867.00
2023-04-20T08:23:40.101Z,868.00
2023-04-20T08:24:40.206Z,901.00
2023-04-20T08:25:40.197Z,910.00
2023-04-20T08:26:40.308Z,908.00
2023-04-20T08:27:40.929Z,910.00
2023-04-20T08:28:40.429Z,911.00
2023-04-20T08:29:40.987Z,908.00
2023-04-20T08:30:40.349Z,902.00
2023-04-20T08:31:40.457Z,895.00
2023-04-20T08:32:40.500Z,881.00
2023-04-20T08:33:40.570Z,865.00
2023-04-20T08:34:40.470Z,850.00
2023-04-20T08:35:41.059Z,839.00
2023-04-20T08:36:40.528Z,825.00
2023-04-20T08:37:40.644Z,812.00
2023-04-20T08:38:40.619Z,803.00
2023-04-20T08:39:40.583Z,795.00
2023-04-20T08:40:40.637Z,782.00
2023-04-20T08:41:40.742Z,769.00
2023-04-20T08:42:40.775Z,756.00
2023-04-20T08:43:40.793Z,745.00
2023-04-20T08:44:40.877Z,699.00
2023-04-20T08:45:40.894Z,699.00
2023-04-20T08:46:41.038Z,704.00
2023-04-20T08:47:40.995Z,712.00
2023-04-20T08:48:40.886Z,756.00
2023-04-20T08:49:41.271Z,757.00
2023-04-20T08:50:41.034Z,762.00
2023-04-20T08:51:41.101Z,767.00
2023-04-20T08:52:41.167Z,772.00
2023-04-20T08:53:41.259Z,777.00
2023-04-20T08:54:55.266Z,781.00
2023-04-20T08:55:42.326Z,785.00
2023-04-20T08:56:41.354Z,787.00
2023-04-20T08:57:41.243Z,790.00
2023-04-20T08:58:41.283Z,800.00
2023-04-20T08:59:41.333Z,804.00
2023-04-20T09:00:41.169Z,808.00
2023-04-20T09:01:41.293Z,812.00
2023-04-20T09:02:41.443Z,820.00
2023-04-20T09:03:41.432Z,826.00
2023-04-20T09:04:41.296Z,831.00
2023-04-20T09:05:41.164Z,834.00
2023-04-20T09:06:41.282Z,840.00
2023-04-20T09:07:41.182Z,844.00
2023-04-20T09:08:41.229Z,852.00
2023-04-20T09:09:41.113Z,857.00
2023-04-20T09:10:41.126Z,860.00
2023-04-20T09:11:41.106Z,864.00
2023-04-20T09:12:41.192Z,868.00
2023-04-20T09:13:41.081Z,871.00
2023-04-20T09:14:41.132Z,875.00
2023-04-20T09:15:41.247Z,884.00
2023-04-20T09:16:41.333Z,886.00
2023-04-20T09:17:41.805Z,887.00
2023-04-20T09:18:41.363Z,890.00
2023-04-20T09:19:41.420Z,895.00
2023-04-20T09:20:41.472Z,902.00
2023-04-20T09:21:41.518Z,904.00
2023-04-20T09:22:41.604Z,905.00
2023-04-20T09:23:41.614Z,912.00
2023-04-20T09:24:41.799Z,922.00
2023-04-20T09:25:41.727Z,924.00
2023-04-20T09:26:41.677Z,929.00
2023-04-20T09:27:41.768Z,944.00
2023-04-20T09:28:42.312Z,953.00
2023-04-20T09:29:41.893Z,960.00
2023-04-20T09:30:41.870Z,966.00
2023-04-20T09:31:41.894Z,970.00
2023-04-20T09:32:41.939Z,972.00
2023-04-20T09:33:42.313Z,975.00
2023-04-20T09:34:41.891Z,974.00
2023-04-20T09:35:41.987Z,977.00
2023-04-20T09:36:42.331Z,979.00
2023-04-20T09:37:42.312Z,977.00
2023-04-20T09:38:42.321Z,765.00
2023-04-20T09:39:42.471Z,803.00
2023-04-20T09:40:42.352Z,885.00
2023-04-20T09:41:42.332Z,862.00
2023-04-20T09:42:42.353Z,868.00
2023-04-20T09:43:42.285Z,862.00
2023-04-20T09:44:42.154Z,822.00
2023-04-20T09:45:42.361Z,798.00
2023-04-20T09:46:42.384Z,739.00
2023-04-20T09:47:42.234Z,809.00
2023-04-20T09:48:42.208Z,840.00
2023-04-20T09:49:42.255Z,829.00
2023-04-20T09:50:49.819Z,818.00
2023-04-20T09:51:43.230Z,815.00
2023-04-20T09:52:42.208Z,809.00
2023-04-20T09:53:42.328Z,807.00
2023-04-20T09:54:42.540Z,801.00
2023-04-20T09:55:42.192Z,793.00
2023-04-20T09:56:42.370Z,688.00
2023-04-20T09:57:42.180Z,706.00
2023-04-20T09:58:42.176Z,716.00
2023-04-20T09:59:42.251Z,765.00
2023-04-20T10:00:42.161Z,761.00
2023-04-20T10:01:42.230Z,757.00
2023-04-20T10:02:42.360Z,755.00
2023-04-20T10:03:42.458Z,749.00
2023-04-20T10:04:42.513Z,747.00
2023-04-20T10:05:42.445Z,749.00
2023-04-20T10:06:42.501Z,748.00
2023-04-20T10:07:42.505Z,747.00
2023-04-20T10:08:42.936Z,751.00
2023-04-20T10:09:42.699Z,755.00
2023-04-20T10:10:42.634Z,759.00
2023-04-20T10:11:52.690Z,762.00
2023-04-20T10:12:43.666Z,772.00
2023-04-20T10:13:42.656Z,776.00
2023-04-20T10:14:42.778Z,780.00
2023-04-20T10:15:42.668Z,806.00
2023-04-20T10:16:42.685Z,810.00
2023-04-20T10:17:42.842Z,815.00
2023-04-20T10:18:42.743Z,816.00
2023-04-20T10:19:42.635Z,819.00
2023-04-20T10:20:42.843Z,815.00
2023-04-20T10:21:42.605Z,814.00
2023-04-20T10:22:42.820Z,815.00
2023-04-20T10:23:42.747Z,819.00
2023-04-20T10:24:42.644Z,823.00
2023-04-20T10:25:44.394Z,827.00
2023-04-20T10:26:42.610Z,827.00
2023-04-20T10:27:42.666Z,827.00
2023-04-20T10:28:43.712Z,829.00
2023-04-20T10:29:42.571Z,798.00
2023-04-20T10:30:43.068Z,716.00
2023-04-20T10:31:42.713Z,700.00
2023-04-20T10:32:42.680Z,674.00
2023-04-20T10:33:43.376Z,669.00
2023-04-20T10:34:42.651Z,626.00
2023-04-20T10:35:44.608Z,580.00
2023-04-20T10:36:42.687Z,598.00
2023-04-20T10:37:42.673Z,606.00
2023-04-20T10:38:42.642Z,623.00
2023-04-20T10:39:42.713Z,621.00
2023-04-20T10:40:42.667Z,615.00
2023-04-20T10:41:42.648Z,610.00
2023-04-20T10:42:42.666Z,612.00
2023-04-20T10:43:42.706Z,609.00
2023-04-20T10:44:42.792Z,603.00
2023-04-20T10:45:42.676Z,596.00
2023-04-20T10:46:42.670Z,589.00
2023-04-20T10:47:42.712Z,584.00
2023-04-20T10:48:42.606Z,579.00
2023-04-20T10:49:42.596Z,576.00
2023-04-20T10:50:42.558Z,571.00
2023-04-20T10:51:42.580Z,571.00
2023-04-20T10:52:42.619Z,572.00
2023-04-20T10:53:42.566Z,572.00
2023-04-20T10:54:42.558Z,571.00
2023-04-20T10:55:42.585Z,569.00
2023-04-20T10:56:42.586Z,566.00
2023-04-20T10:57:42.548Z,563.00
2023-04-20T10:58:42.513Z,561.00
2023-04-20T10:59:42.556Z,562.00
2023-04-20T11:00:42.531Z,559.00
2023-04-20T11:01:42.562Z,553.00
2023-04-20T11:02:42.584Z,551.00
2023-04-20T11:03:43.140Z,549.00
2023-04-20T11:04:42.528Z,547.00
2023-04-20T11:05:42.532Z,559.00
2023-04-20T11:06:42.506Z,549.00
2023-04-20T11:07:42.550Z,544.00
2023-04-20T11:08:42.470Z,571.00
2023-04-20T11:09:42.465Z,555.00
2023-04-20T11:10:42.936Z,567.00
2023-04-20T11:11:42.890Z,559.00
2023-04-20T11:12:42.851Z,553.00
2023-04-20T11:13:42.458Z,554.00
2023-04-20T11:14:42.460Z,550.00
2023-04-20T11:15:42.384Z,549.00
2023-04-20T11:16:50.902Z,547.00
2023-04-20T11:17:43.460Z,549.00
2023-04-20T11:18:42.863Z,556.00
2023-04-20T11:19:42.845Z,566.00
2023-04-20T11:20:42.844Z,573.00
2023-04-20T11:21:42.398Z,579.00
2023-04-20T11:22:42.405Z,583.00
2023-04-20T11:23:42.388Z,584.00
2023-04-20T11:24:42.429Z,582.00
2023-04-20T11:25:42.837Z,579.00
2023-04-20T11:26:42.413Z,576.00
2023-04-20T11:27:42.341Z,572.00
2023-04-20T11:28:42.359Z,568.00
2023-04-20T11:29:42.375Z,566.00
2023-04-20T11:30:42.407Z,564.00
2023-04-20T11:31:42.489Z,558.00
2023-04-20T11:32:42.660Z,553.00
2023-04-20T11:33:42.580Z,547.00
2023-04-20T11:34:43.429Z,543.00
2023-04-20T11:35:42.571Z,539.00
2023-04-20T11:36:42.595Z,534.00
2023-04-20T11:37:42.577Z,530.00
2023-04-20T11:38:45.347Z,525.00
2023-04-20T11:39:42.576Z,520.00
2023-04-20T11:40:42.578Z,517.00
2023-04-20T11:41:42.560Z,516.00
2023-04-20T11:42:42.547Z,514.00
2023-04-20T11:43:42.586Z,512.00
2023-04-20T11:44:42.521Z,509.00
2023-04-20T11:45:42.628Z,506.00
2023-04-20T11:46:42.590Z,505.00
2023-04-20T11:47:42.612Z,506.00
2023-04-20T11:48:42.553Z,510.00
2023-04-20T11:49:42.560Z,515.00
2023-04-20T11:50:42.724Z,518.00
2023-04-20T11:51:42.502Z,520.00
2023-04-20T11:52:42.538Z,519.00
2023-04-20T11:53:42.528Z,521.00
2023-04-20T11:54:42.444Z,526.00
2023-04-20T11:55:42.469Z,528.00
2023-04-20T11:56:42.725Z,531.00
2023-04-20T11:57:42.444Z,533.00
2023-04-20T11:58:42.446Z,533.00
2023-04-20T11:59:42.463Z,531.00
2023-04-20T12:00:42.481Z,531.00
2023-04-20T12:01:42.458Z,532.00
2023-04-20T12:02:42.502Z,534.00
2023-04-20T12:03:43.994Z,534.00
2023-04-20T12:04:42.742Z,536.00
2023-04-20T12:05:42.474Z,538.00
2023-04-20T12:06:42.416Z,541.00
2023-04-20T12:07:42.516Z,541.00
2023-04-20T12:08:42.413Z,544.00
2023-04-20T12:09:42.357Z,552.00
2023-04-20T12:10:42.370Z,559.00
2023-04-20T12:11:42.381Z,556.00
2023-04-20T12:12:42.410Z,550.00
2023-04-20T12:13:42.352Z,550.00
2023-04-20T12:14:42.353Z,550.00
2023-04-20T12:15:42.477Z,548.00
2023-04-20T12:16:42.332Z,546.00
2023-04-20T12:17:42.369Z,545.00
2023-04-20T12:18:42.326Z,545.00
2023-04-20T12:19:42.332Z,544.00
2023-04-20T12:20:42.295Z,547.00
2023-04-20T12:21:42.303Z,546.00
2023-04-20T12:22:42.309Z,542.00
2023-04-20T12:23:42.268Z,535.00
2023-04-20T12:24:42.280Z,533.00
2023-04-20T12:25:42.253Z,531.00
2023-04-20T12:26:42.273Z,530.00
2023-04-20T12:27:42.860Z,526.00
2023-04-20T12:28:42.243Z,523.00